sensor_id;sensor_type;location;lat;lon;timestamp;P1;durP1;ratioP1;P2;durP2;ratioP2
35550;SDS011;21655;46.056;13.616;2023-07-29T00:01:58;11.63;;;3.72;;
35550;SDS011;21655;46.056;13.616;2023-07-29T00:04:23;8.68;;;3.83;;
35550;SDS011;21655;46.056;13.616;2023-07-29T00:06:49;8.90;;;3.70;;
35550;SDS011;21655;46.056;13.616;2023-07-29T00:09:14;7.68;;;3.35;;
35550;SDS011;21655;46.056;13.616;2023-07-29T00:11:39;10.35;;;3.50;;
35550;SDS011;21655;46.056;13.616;2023-07-29T00:14:05;7.75;;;3.65;;
35550;SDS011;21655;46.056;13.616;2023-07-29T00:16:30;5.43;;;3.65;;
35550;SDS011;21655;46.056;13.616;2023-07-29T00:18:56;9.65;;;3.90;;
35550;SDS011;21655;46.056;13.616;2023-07-29T00:21:21;8.57;;;3.20;;
35550;SDS011;21655;46.056;13.616;2023-07-29T00:23:47;7.25;;;3.35;;
35550;SDS011;21655;46.056;13.616;2023-07-29T00:26:12;13.73;;;3.45;;
35550;SDS011;21655;46.056;13.616;2023-07-29T00:28:37;5.03;;;3.00;;
35550;SDS011;21655;46.056;13.616;2023-07-29T00:31:03;7.47;;;3.17;;
35550;SDS011;21655;46.056;13.616;2023-07-29T00:33:28;12.27;;;4.05;;
35550;SDS011;21655;46.056;13.616;2023-07-29T00:35:54;9.55;;;3.63;;
35550;SDS011;21655;46.056;13.616;2023-07-29T00:38:19;7.20;;;3.53;;
35550;SDS011;21655;46.056;13.616;2023-07-29T00:40:44;8.77;;;4.07;;
35550;SDS011;21655;46.056;13.616;2023-07-29T00:43:10;12.48;;;3.65;;
35550;SDS011;21655;46.056;13.616;2023-07-29T00:45:36;9.02;;;3.53;;
35550;SDS011;21655;46.056;13.616;2023-07-29T00:48:02;7.88;;;3.45;;
35550;SDS011;21655;46.056;13.616;2023-07-29T00:50:28;7.82;;;3.28;;
35550;SDS011;21655;46.056;13.616;2023-07-29T00:52:55;12.38;;;4.20;;
35550;SDS011;21655;46.056;13.616;2023-07-29T00:55:22;9.60;;;3.65;;
35550;SDS011;21655;46.056;13.616;2023-07-29T00:57:48;10.88;;;3.40;;
35550;SDS011;21655;46.056;13.616;2023-07-29T01:00:16;10.13;;;5.55;;
35550;SDS011;21655;46.056;13.616;2023-07-29T01:02:42;9.25;;;3.95;;
35550;SDS011;21655;46.056;13.616;2023-07-29T01:05:08;8.20;;;3.28;;
35550;SDS011;21655;46.056;13.616;2023-07-29T01:15:29;9.25;;;4.18;;
35550;SDS011;21655;46.056;13.616;2023-07-29T01:17:57;10.57;;;3.90;;
35550;SDS011;21655;46.056;13.616;2023-07-29T01:20:29;8.20;;;4.05;;
35550;SDS011;21655;46.056;13.616;2023-07-29T01:22:57;6.00;;;3.85;;
35550;SDS011;21655;46.056;13.616;2023-07-29T01:25:23;8.32;;;3.72;;
35550;SDS011;21655;46.056;13.616;2023-07-29T01:27:48;9.02;;;3.70;;
35550;SDS011;21655;46.056;13.616;2023-07-29T01:30:16;7.55;;;3.45;;
35550;SDS011;21655;46.056;13.616;2023-07-29T01:32:43;8.95;;;4.88;;
35550;SDS011;21655;46.056;13.616;2023-07-29T01:38:09;12.93;;;3.78;;
35550;SDS011;21655;46.056;13.616;2023-07-29T01:40:39;9.18;;;4.13;;
35550;SDS011;21655;46.056;13.616;2023-07-29T01:43:05;9.85;;;4.68;;
35550;SDS011;21655;46.056;13.616;2023-07-29T01:45:33;11.95;;;4.03;;
35550;SDS011;21655;46.056;13.616;2023-07-29T01:48:03;7.00;;;4.03;;
35550;SDS011;21655;46.056;13.616;2023-07-29T01:50:32;10.60;;;3.88;;
35550;SDS011;21655;46.056;13.616;2023-07-29T01:52:58;10.68;;;4.38;;
35550;SDS011;21655;46.056;13.616;2023-07-29T01:55:24;9.52;;;3.92;;
35550;SDS011;21655;46.056;13.616;2023-07-29T01:57:49;8.18;;;4.20;;
35550;SDS011;21655;46.056;13.616;2023-07-29T02:00:16;6.63;;;3.70;;
35550;SDS011;21655;46.056;13.616;2023-07-29T02:02:42;8.32;;;3.80;;
35550;SDS011;21655;46.056;13.616;2023-07-29T02:05:07;8.02;;;4.03;;
35550;SDS011;21655;46.056;13.616;2023-07-29T02:07:32;12.27;;;4.90;;
35550;SDS011;21655;46.056;13.616;2023-07-29T02:09:58;8.48;;;4.38;;
35550;SDS011;21655;46.056;13.616;2023-07-29T02:12:23;7.85;;;4.80;;
35550;SDS011;21655;46.056;13.616;2023-07-29T02:14:49;10.75;;;4.55;;
35550;SDS011;21655;46.056;13.616;2023-07-29T02:17:15;7.78;;;4.07;;
35550;SDS011;21655;46.056;13.616;2023-07-29T02:19:40;7.15;;;4.45;;
35550;SDS011;21655;46.056;13.616;2023-07-29T02:22:06;7.60;;;4.63;;
35550;SDS011;21655;46.056;13.616;2023-07-29T02:24:31;10.88;;;4.97;;
35550;SDS011;21655;46.056;13.616;2023-07-29T02:26:56;12.95;;;5.30;;
35550;SDS011;21655;46.056;13.616;2023-07-29T02:29:22;10.68;;;4.82;;
35550;SDS011;21655;46.056;13.616;2023-07-29T02:31:47;9.48;;;4.55;;
35550;SDS011;21655;46.056;13.616;2023-07-29T02:34:13;9.85;;;4.72;;
35550;SDS011;21655;46.056;13.616;2023-07-29T02:36:38;10.35;;;5.10;;
35550;SDS011;21655;46.056;13.616;2023-07-29T02:39:04;10.00;;;4.90;;
35550;SDS011;21655;46.056;13.616;2023-07-29T02:41:30;10.27;;;5.43;;
35550;SDS011;21655;46.056;13.616;2023-07-29T02:43:55;11.70;;;5.90;;
35550;SDS011;21655;46.056;13.616;2023-07-29T02:46:20;8.05;;;5.10;;
35550;SDS011;21655;46.056;13.616;2023-07-29T02:48:46;8.48;;;4.88;;
35550;SDS011;21655;46.056;13.616;2023-07-29T02:51:11;11.18;;;5.47;;
35550;SDS011;21655;46.056;13.616;2023-07-29T02:53:37;10.55;;;5.03;;
35550;SDS011;21655;46.056;13.616;2023-07-29T02:56:03;10.35;;;5.07;;
35550;SDS011;21655;46.056;13.616;2023-07-29T02:58:28;11.43;;;5.35;;
35550;SDS011;21655;46.056;13.616;2023-07-29T03:01:00;12.75;;;5.50;;
35550;SDS011;21655;46.056;13.616;2023-07-29T03:03:28;9.60;;;5.13;;
35550;SDS011;21655;46.056;13.616;2023-07-29T03:05:58;7.88;;;4.93;;
35550;SDS011;21655;46.056;13.616;2023-07-29T03:08:24;8.65;;;5.20;;
35550;SDS011;21655;46.056;13.616;2023-07-29T03:10:50;9.90;;;5.22;;
35550;SDS011;21655;46.056;13.616;2023-07-29T03:13:15;8.18;;;4.80;;
35550;SDS011;21655;46.056;13.616;2023-07-29T03:15:40;8.38;;;5.38;;
35550;SDS011;21655;46.056;13.616;2023-07-29T03:18:06;11.52;;;5.43;;
35550;SDS011;21655;46.056;13.616;2023-07-29T03:20:31;8.77;;;5.38;;
35550;SDS011;21655;46.056;13.616;2023-07-29T03:22:57;8.77;;;5.15;;
35550;SDS011;21655;46.056;13.616;2023-07-29T03:25:22;8.98;;;5.13;;
35550;SDS011;21655;46.056;13.616;2023-07-29T03:27:48;8.90;;;5.53;;
35550;SDS011;21655;46.056;13.616;2023-07-29T03:30:14;8.05;;;4.90;;
35550;SDS011;21655;46.056;13.616;2023-07-29T03:32:43;7.05;;;4.78;;
35550;SDS011;21655;46.056;13.616;2023-07-29T03:35:10;8.82;;;5.53;;
35550;SDS011;21655;46.056;13.616;2023-07-29T03:37:36;10.15;;;5.03;;
35550;SDS011;21655;46.056;13.616;2023-07-29T03:40:01;9.52;;;4.93;;
35550;SDS011;21655;46.056;13.616;2023-07-29T03:42:28;10.60;;;5.60;;
35550;SDS011;21655;46.056;13.616;2023-07-29T03:44:53;8.52;;;5.43;;
35550;SDS011;21655;46.056;13.616;2023-07-29T03:47:19;8.55;;;4.53;;
35550;SDS011;21655;46.056;13.616;2023-07-29T03:49:44;9.43;;;5.10;;
35550;SDS011;21655;46.056;13.616;2023-07-29T03:52:09;12.05;;;5.35;;
35550;SDS011;21655;46.056;13.616;2023-07-29T03:54:35;8.98;;;5.15;;
35550;SDS011;21655;46.056;13.616;2023-07-29T03:57:01;11.30;;;5.03;;
35550;SDS011;21655;46.056;13.616;2023-07-29T03:59:26;7.82;;;5.28;;
35550;SDS011;21655;46.056;13.616;2023-07-29T04:01:51;11.60;;;5.35;;
35550;SDS011;21655;46.056;13.616;2023-07-29T04:04:17;10.15;;;5.32;;
35550;SDS011;21655;46.056;13.616;2023-07-29T04:06:42;8.93;;;4.97;;
35550;SDS011;21655;46.056;13.616;2023-07-29T04:09:08;9.68;;;5.15;;
35550;SDS011;21655;46.056;13.616;2023-07-29T04:11:34;6.95;;;4.65;;
35550;SDS011;21655;46.056;13.616;2023-07-29T04:13:59;7.57;;;4.80;;
35550;SDS011;21655;46.056;13.616;2023-07-29T04:16:25;9.88;;;5.22;;
35550;SDS011;21655;46.056;13.616;2023-07-29T04:18:51;10.00;;;5.15;;
35550;SDS011;21655;46.056;13.616;2023-07-29T04:21:16;7.40;;;5.18;;
35550;SDS011;21655;46.056;13.616;2023-07-29T04:23:42;10.27;;;5.50;;
35550;SDS011;21655;46.056;13.616;2023-07-29T04:26:07;9.50;;;4.95;;
35550;SDS011;21655;46.056;13.616;2023-07-29T04:28:32;6.97;;;4.97;;
35550;SDS011;21655;46.056;13.616;2023-07-29T04:30:58;9.55;;;5.03;;
35550;SDS011;21655;46.056;13.616;2023-07-29T04:33:24;9.27;;;4.70;;
35550;SDS011;21655;46.056;13.616;2023-07-29T04:35:50;9.55;;;4.80;;
35550;SDS011;21655;46.056;13.616;2023-07-29T04:38:15;10.80;;;4.50;;
35550;SDS011;21655;46.056;13.616;2023-07-29T04:40:41;9.68;;;4.85;;
35550;SDS011;21655;46.056;13.616;2023-07-29T04:43:06;14.70;;;5.18;;
35550;SDS011;21655;46.056;13.616;2023-07-29T04:45:31;6.22;;;4.28;;
35550;SDS011;21655;46.056;13.616;2023-07-29T04:47:58;8.73;;;4.90;;
35550;SDS011;21655;46.056;13.616;2023-07-29T04:50:24;7.85;;;4.30;;
35550;SDS011;21655;46.056;13.616;2023-07-29T04:52:49;6.43;;;3.90;;
35550;SDS011;21655;46.056;13.616;2023-07-29T04:55:14;8.23;;;4.20;;
35550;SDS011;21655;46.056;13.616;2023-07-29T04:57:40;7.47;;;4.20;;
35550;SDS011;21655;46.056;13.616;2023-07-29T05:00:06;11.35;;;4.35;;
35550;SDS011;21655;46.056;13.616;2023-07-29T05:02:32;6.95;;;3.95;;
35550;SDS011;21655;46.056;13.616;2023-07-29T05:04:57;9.20;;;4.60;;
35550;SDS011;21655;46.056;13.616;2023-07-29T05:07:23;7.72;;;3.95;;
35550;SDS011;21655;46.056;13.616;2023-07-29T05:09:48;6.30;;;3.50;;
35550;SDS011;21655;46.056;13.616;2023-07-29T05:12:13;11.40;;;4.20;;
35550;SDS011;21655;46.056;13.616;2023-07-29T05:14:39;6.07;;;3.78;;
35550;SDS011;21655;46.056;13.616;2023-07-29T05:17:05;9.07;;;3.80;;
35550;SDS011;21655;46.056;13.616;2023-07-29T05:19:31;6.97;;;3.25;;
35550;SDS011;21655;46.056;13.616;2023-07-29T05:21:56;8.65;;;3.58;;
35550;SDS011;21655;46.056;13.616;2023-07-29T05:24:22;10.63;;;3.40;;
35550;SDS011;21655;46.056;13.616;2023-07-29T05:26:48;6.97;;;2.97;;
35550;SDS011;21655;46.056;13.616;2023-07-29T05:29:14;7.22;;;3.08;;
35550;SDS011;21655;46.056;13.616;2023-07-29T05:31:39;5.30;;;2.97;;
35550;SDS011;21655;46.056;13.616;2023-07-29T05:34:05;5.72;;;2.90;;
35550;SDS011;21655;46.056;13.616;2023-07-29T05:36:30;5.40;;;2.75;;
35550;SDS011;21655;46.056;13.616;2023-07-29T05:38:55;5.93;;;3.33;;
35550;SDS011;21655;46.056;13.616;2023-07-29T05:41:21;5.53;;;2.72;;
35550;SDS011;21655;46.056;13.616;2023-07-29T05:43:46;5.13;;;2.80;;
35550;SDS011;21655;46.056;13.616;2023-07-29T05:46:12;6.03;;;3.25;;
35550;SDS011;21655;46.056;13.616;2023-07-29T05:48:37;5.93;;;2.85;;
35550;SDS011;21655;46.056;13.616;2023-07-29T05:51:03;5.72;;;2.70;;
35550;SDS011;21655;46.056;13.616;2023-07-29T05:53:30;7.95;;;2.20;;
35550;SDS011;21655;46.056;13.616;2023-07-29T05:55:56;6.78;;;2.53;;
35550;SDS011;21655;46.056;13.616;2023-07-29T05:58:21;6.55;;;2.67;;
35550;SDS011;21655;46.056;13.616;2023-07-29T06:00:47;7.97;;;2.42;;
35550;SDS011;21655;46.056;13.616;2023-07-29T06:03:12;8.07;;;3.15;;
35550;SDS011;21655;46.056;13.616;2023-07-29T06:05:38;6.38;;;2.33;;
35550;SDS011;21655;46.056;13.616;2023-07-29T06:08:04;11.07;;;2.80;;
35550;SDS011;21655;46.056;13.616;2023-07-29T06:10:29;6.60;;;2.50;;
35550;SDS011;21655;46.056;13.616;2023-07-29T06:12:55;5.22;;;2.30;;
35550;SDS011;21655;46.056;13.616;2023-07-29T06:15:20;3.95;;;2.40;;
35550;SDS011;21655;46.056;13.616;2023-07-29T06:17:48;4.88;;;2.55;;
35550;SDS011;21655;46.056;13.616;2023-07-29T06:20:13;5.63;;;2.33;;
35550;SDS011;21655;46.056;13.616;2023-07-29T06:22:39;7.90;;;2.80;;
35550;SDS011;21655;46.056;13.616;2023-07-29T06:25:05;8.20;;;2.58;;
35550;SDS011;21655;46.056;13.616;2023-07-29T06:27:31;6.15;;;2.70;;
35550;SDS011;21655;46.056;13.616;2023-07-29T06:29:56;6.55;;;3.00;;
35550;SDS011;21655;46.056;13.616;2023-07-29T06:32:22;6.50;;;2.60;;
35550;SDS011;21655;46.056;13.616;2023-07-29T06:34:47;5.32;;;2.40;;
35550;SDS011;21655;46.056;13.616;2023-07-29T06:37:13;8.30;;;2.70;;
35550;SDS011;21655;46.056;13.616;2023-07-29T06:39:38;5.03;;;2.08;;
35550;SDS011;21655;46.056;13.616;2023-07-29T06:42:03;7.43;;;1.98;;
35550;SDS011;21655;46.056;13.616;2023-07-29T06:44:29;6.57;;;2.22;;
35550;SDS011;21655;46.056;13.616;2023-07-29T06:46:54;6.35;;;2.15;;
35550;SDS011;21655;46.056;13.616;2023-07-29T06:49:20;7.50;;;2.50;;
35550;SDS011;21655;46.056;13.616;2023-07-29T06:51:45;6.57;;;2.17;;
35550;SDS011;21655;46.056;13.616;2023-07-29T06:54:10;9.25;;;2.33;;
35550;SDS011;21655;46.056;13.616;2023-07-29T06:56:36;13.05;;;2.22;;
35550;SDS011;21655;46.056;13.616;2023-07-29T06:59:02;5.85;;;2.20;;
35550;SDS011;21655;46.056;13.616;2023-07-29T07:01:27;6.07;;;1.83;;
35550;SDS011;21655;46.056;13.616;2023-07-29T07:03:53;6.82;;;1.90;;
35550;SDS011;21655;46.056;13.616;2023-07-29T07:06:20;5.82;;;2.08;;
35550;SDS011;21655;46.056;13.616;2023-07-29T07:08:47;5.20;;;2.40;;
35550;SDS011;21655;46.056;13.616;2023-07-29T07:11:12;5.32;;;2.38;;
35550;SDS011;21655;46.056;13.616;2023-07-29T07:13:38;4.15;;;1.92;;
35550;SDS011;21655;46.056;13.616;2023-07-29T07:16:03;4.45;;;2.13;;
35550;SDS011;21655;46.056;13.616;2023-07-29T07:18:29;6.95;;;2.13;;
35550;SDS011;21655;46.056;13.616;2023-07-29T07:20:55;5.45;;;2.00;;
35550;SDS011;21655;46.056;13.616;2023-07-29T07:23:20;4.32;;;1.90;;
35550;SDS011;21655;46.056;13.616;2023-07-29T07:25:46;4.05;;;2.22;;
35550;SDS011;21655;46.056;13.616;2023-07-29T07:28:11;5.88;;;1.83;;
35550;SDS011;21655;46.056;13.616;2023-07-29T07:30:40;5.70;;;2.63;;
35550;SDS011;21655;46.056;13.616;2023-07-29T07:33:08;3.13;;;1.70;;
35550;SDS011;21655;46.056;13.616;2023-07-29T07:35:34;5.65;;;2.10;;
35550;SDS011;21655;46.056;13.616;2023-07-29T07:37:59;6.70;;;1.80;;
35550;SDS011;21655;46.056;13.616;2023-07-29T07:40:27;5.78;;;1.83;;
35550;SDS011;21655;46.056;13.616;2023-07-29T07:42:52;5.38;;;1.90;;
35550;SDS011;21655;46.056;13.616;2023-07-29T07:45:18;3.90;;;1.80;;
35550;SDS011;21655;46.056;13.616;2023-07-29T07:47:43;3.33;;;1.65;;
35550;SDS011;21655;46.056;13.616;2023-07-29T07:50:09;4.65;;;1.65;;
35550;SDS011;21655;46.056;13.616;2023-07-29T07:52:34;8.27;;;2.53;;
35550;SDS011;21655;46.056;13.616;2023-07-29T07:55:00;6.18;;;2.35;;
35550;SDS011;21655;46.056;13.616;2023-07-29T07:57:26;8.60;;;2.15;;
35550;SDS011;21655;46.056;13.616;2023-07-29T07:59:51;5.53;;;2.05;;
35550;SDS011;21655;46.056;13.616;2023-07-29T08:02:17;3.35;;;1.70;;
35550;SDS011;21655;46.056;13.616;2023-07-29T08:04:43;5.25;;;1.70;;
35550;SDS011;21655;46.056;13.616;2023-07-29T08:07:08;5.10;;;2.10;;
35550;SDS011;21655;46.056;13.616;2023-07-29T08:09:34;4.10;;;1.90;;
35550;SDS011;21655;46.056;13.616;2023-07-29T08:11:59;8.75;;;2.00;;
35550;SDS011;21655;46.056;13.616;2023-07-29T08:14:25;7.43;;;1.98;;
35550;SDS011;21655;46.056;13.616;2023-07-29T08:16:51;4.10;;;1.98;;
35550;SDS011;21655;46.056;13.616;2023-07-29T08:19:17;4.55;;;1.90;;
35550;SDS011;21655;46.056;13.616;2023-07-29T08:21:42;3.72;;;1.80;;
35550;SDS011;21655;46.056;13.616;2023-07-29T08:24:07;5.57;;;1.90;;
35550;SDS011;21655;46.056;13.616;2023-07-29T08:26:33;5.72;;;2.00;;
35550;SDS011;21655;46.056;13.616;2023-07-29T08:28:58;4.75;;;1.63;;
35550;SDS011;21655;46.056;13.616;2023-07-29T08:31:24;5.18;;;1.95;;
35550;SDS011;21655;46.056;13.616;2023-07-29T08:33:49;5.20;;;1.98;;
35550;SDS011;21655;46.056;13.616;2023-07-29T08:36:14;5.63;;;1.85;;
35550;SDS011;21655;46.056;13.616;2023-07-29T08:38:40;4.68;;;1.70;;
35550;SDS011;21655;46.056;13.616;2023-07-29T08:44:20;4.47;;;2.05;;
35550;SDS011;21655;46.056;13.616;2023-07-29T08:46:47;4.13;;;1.90;;
35550;SDS011;21655;46.056;13.616;2023-07-29T08:49:13;3.55;;;1.80;;
35550;SDS011;21655;46.056;13.616;2023-07-29T08:51:42;2.40;;;1.70;;
35550;SDS011;21655;46.056;13.616;2023-07-29T08:54:08;5.50;;;2.00;;
35550;SDS011;21655;46.056;13.616;2023-07-29T08:56:35;3.08;;;1.90;;
35550;SDS011;21655;46.056;13.616;2023-07-29T08:59:02;3.05;;;1.80;;
35550;SDS011;21655;46.056;13.616;2023-07-29T09:01:29;3.45;;;1.55;;
35550;SDS011;21655;46.056;13.616;2023-07-29T09:03:55;5.10;;;1.90;;
35550;SDS011;21655;46.056;13.616;2023-07-29T09:06:21;5.25;;;1.83;;
35550;SDS011;21655;46.056;13.616;2023-07-29T09:08:49;2.65;;;1.83;;
35550;SDS011;21655;46.056;13.616;2023-07-29T09:11:16;4.47;;;1.95;;
35550;SDS011;21655;46.056;13.616;2023-07-29T09:13:42;2.80;;;1.92;;
35550;SDS011;21655;46.056;13.616;2023-07-29T09:16:08;3.67;;;1.77;;
35550;SDS011;21655;46.056;13.616;2023-07-29T09:18:34;2.70;;;1.67;;
35550;SDS011;21655;46.056;13.616;2023-07-29T09:21:00;4.78;;;1.67;;
35550;SDS011;21655;46.056;13.616;2023-07-29T09:23:26;4.43;;;1.92;;
35550;SDS011;21655;46.056;13.616;2023-07-29T09:26:00;4.30;;;1.85;;
35550;SDS011;21655;46.056;13.616;2023-07-29T09:28:32;5.72;;;1.60;;
35550;SDS011;21655;46.056;13.616;2023-07-29T09:31:02;3.20;;;1.52;;
35550;SDS011;21655;46.056;13.616;2023-07-29T09:33:28;2.75;;;1.65;;
35550;SDS011;21655;46.056;13.616;2023-07-29T09:35:54;5.28;;;2.00;;
35550;SDS011;21655;46.056;13.616;2023-07-29T09:38:25;5.45;;;1.90;;
35550;SDS011;21655;46.056;13.616;2023-07-29T09:40:54;2.80;;;1.70;;
35550;SDS011;21655;46.056;13.616;2023-07-29T09:43:24;5.57;;;2.28;;
35550;SDS011;21655;46.056;13.616;2023-07-29T09:48:19;4.97;;;2.00;;
35550;SDS011;21655;46.056;13.616;2023-07-29T09:50:47;5.38;;;2.00;;
35550;SDS011;21655;46.056;13.616;2023-07-29T09:53:13;6.95;;;2.10;;
35550;SDS011;21655;46.056;13.616;2023-07-29T09:55:39;3.80;;;1.80;;
35550;SDS011;21655;46.056;13.616;2023-07-29T09:58:05;4.43;;;1.73;;
35550;SDS011;21655;46.056;13.616;2023-07-29T10:00:33;6.18;;;1.65;;
35550;SDS011;21655;46.056;13.616;2023-07-29T10:02:59;5.32;;;1.92;;
35550;SDS011;21655;46.056;13.616;2023-07-29T10:05:25;5.22;;;2.15;;
35550;SDS011;21655;46.056;13.616;2023-07-29T10:07:52;8.35;;;2.00;;
35550;SDS011;21655;46.056;13.616;2023-07-29T10:10:18;3.47;;;2.00;;
35550;SDS011;21655;46.056;13.616;2023-07-29T10:12:45;4.03;;;2.30;;
35550;SDS011;21655;46.056;13.616;2023-07-29T10:15:11;7.80;;;2.20;;
35550;SDS011;21655;46.056;13.616;2023-07-29T10:17:37;5.70;;;2.10;;
35550;SDS011;21655;46.056;13.616;2023-07-29T10:20:04;5.95;;;2.30;;
35550;SDS011;21655;46.056;13.616;2023-07-29T10:22:41;6.47;;;2.08;;
35550;SDS011;21655;46.056;13.616;2023-07-29T10:25:08;5.53;;;2.40;;
35550;SDS011;21655;46.056;13.616;2023-07-29T10:27:41;7.97;;;2.17;;
35550;SDS011;21655;46.056;13.616;2023-07-29T10:30:09;4.63;;;1.98;;
35550;SDS011;21655;46.056;13.616;2023-07-29T10:32:36;4.85;;;2.03;;
35550;SDS011;21655;46.056;13.616;2023-07-29T10:35:03;6.05;;;2.17;;
35550;SDS011;21655;46.056;13.616;2023-07-29T10:37:29;6.55;;;1.98;;
35550;SDS011;21655;46.056;13.616;2023-07-29T10:39:55;7.05;;;2.20;;
35550;SDS011;21655;46.056;13.616;2023-07-29T10:42:21;5.88;;;1.98;;
35550;SDS011;21655;46.056;13.616;2023-07-29T10:44:47;5.60;;;2.25;;
35550;SDS011;21655;46.056;13.616;2023-07-29T10:47:15;4.07;;;1.80;;
35550;SDS011;21655;46.056;13.616;2023-07-29T10:49:42;5.53;;;2.35;;
35550;SDS011;21655;46.056;13.616;2023-07-29T10:52:08;4.78;;;1.95;;
35550;SDS011;21655;46.056;13.616;2023-07-29T10:54:41;4.68;;;2.25;;
35550;SDS011;21655;46.056;13.616;2023-07-29T10:57:13;11.30;;;2.33;;
35550;SDS011;21655;46.056;13.616;2023-07-29T10:59:54;6.40;;;1.92;;
35550;SDS011;21655;46.056;13.616;2023-07-29T11:02:21;5.10;;;2.45;;
35550;SDS011;21655;46.056;13.616;2023-07-29T11:07:20;4.50;;;2.07;;
35550;SDS011;21655;46.056;13.616;2023-07-29T11:09:56;5.65;;;2.08;;
35550;SDS011;21655;46.056;13.616;2023-07-29T11:20:26;5.20;;;2.20;;
35550;SDS011;21655;46.056;13.616;2023-07-29T11:22:54;7.80;;;2.33;;
35550;SDS011;21655;46.056;13.616;2023-07-29T11:25:21;6.95;;;2.47;;
35550;SDS011;21655;46.056;13.616;2023-07-29T11:27:48;8.00;;;2.47;;
35550;SDS011;21655;46.056;13.616;2023-07-29T11:30:16;8.02;;;2.55;;
35550;SDS011;21655;46.056;13.616;2023-07-29T11:32:42;7.38;;;2.40;;
35550;SDS011;21655;46.056;13.616;2023-07-29T11:35:14;6.03;;;2.55;;
35550;SDS011;21655;46.056;13.616;2023-07-29T11:37:41;5.75;;;2.60;;
35550;SDS011;21655;46.056;13.616;2023-07-29T11:40:08;5.10;;;2.60;;
35550;SDS011;21655;46.056;13.616;2023-07-29T11:42:37;6.20;;;2.40;;
35550;SDS011;21655;46.056;13.616;2023-07-29T11:45:03;4.35;;;2.25;;
35550;SDS011;21655;46.056;13.616;2023-07-29T11:47:31;6.97;;;2.60;;
35550;SDS011;21655;46.056;13.616;2023-07-29T11:50:00;4.65;;;2.35;;
35550;SDS011;21655;46.056;13.616;2023-07-29T11:52:27;4.35;;;2.30;;
35550;SDS011;21655;46.056;13.616;2023-07-29T11:54:52;4.10;;;2.33;;
35550;SDS011;21655;46.056;13.616;2023-07-29T11:57:18;4.63;;;2.15;;
35550;SDS011;21655;46.056;13.616;2023-07-29T11:59:44;5.93;;;2.63;;
35550;SDS011;21655;46.056;13.616;2023-07-29T12:02:15;6.28;;;2.70;;
35550;SDS011;21655;46.056;13.616;2023-07-29T12:04:43;7.93;;;2.53;;
35550;SDS011;21655;46.056;13.616;2023-07-29T12:07:12;6.75;;;2.65;;
35550;SDS011;21655;46.056;13.616;2023-07-29T12:09:39;8.60;;;2.70;;
35550;SDS011;21655;46.056;13.616;2023-07-29T12:12:05;4.80;;;2.60;;
35550;SDS011;21655;46.056;13.616;2023-07-29T12:14:31;5.57;;;2.45;;
35550;SDS011;21655;46.056;13.616;2023-07-29T12:17:01;8.35;;;3.17;;
35550;SDS011;21655;46.056;13.616;2023-07-29T12:19:35;8.88;;;2.40;;
35550;SDS011;21655;46.056;13.616;2023-07-29T12:22:03;6.80;;;2.50;;
35550;SDS011;21655;46.056;13.616;2023-07-29T12:24:30;8.95;;;3.17;;
35550;SDS011;21655;46.056;13.616;2023-07-29T12:26:57;6.72;;;2.30;;
35550;SDS011;21655;46.056;13.616;2023-07-29T12:29:24;6.15;;;2.55;;
35550;SDS011;21655;46.056;13.616;2023-07-29T12:31:56;6.95;;;2.65;;
35550;SDS011;21655;46.056;13.616;2023-07-29T12:34:24;4.53;;;2.50;;
35550;SDS011;21655;46.056;13.616;2023-07-29T12:36:51;7.28;;;2.78;;
35550;SDS011;21655;46.056;13.616;2023-07-29T12:41:44;6.07;;;2.97;;
35550;SDS011;21655;46.056;13.616;2023-07-29T12:44:09;5.82;;;2.70;;
35550;SDS011;21655;46.056;13.616;2023-07-29T12:46:35;5.15;;;2.63;;
35550;SDS011;21655;46.056;13.616;2023-07-29T12:49:00;5.80;;;2.80;;
35550;SDS011;21655;46.056;13.616;2023-07-29T12:51:26;7.13;;;3.13;;
35550;SDS011;21655;46.056;13.616;2023-07-29T12:53:53;9.70;;;2.88;;
35550;SDS011;21655;46.056;13.616;2023-07-29T12:56:19;5.70;;;2.42;;
35550;SDS011;21655;46.056;13.616;2023-07-29T12:58:44;6.22;;;2.67;;
35550;SDS011;21655;46.056;13.616;2023-07-29T13:01:10;5.32;;;2.50;;
35550;SDS011;21655;46.056;13.616;2023-07-29T13:03:38;6.38;;;2.35;;
35550;SDS011;21655;46.056;13.616;2023-07-29T13:06:03;6.50;;;2.88;;
35550;SDS011;21655;46.056;13.616;2023-07-29T13:08:29;10.40;;;3.13;;
35550;SDS011;21655;46.056;13.616;2023-07-29T13:10:55;7.70;;;2.78;;
35550;SDS011;21655;46.056;13.616;2023-07-29T13:13:21;6.90;;;3.20;;
35550;SDS011;21655;46.056;13.616;2023-07-29T13:15:47;8.35;;;3.15;;
35550;SDS011;21655;46.056;13.616;2023-07-29T13:18:12;5.43;;;2.38;;
35550;SDS011;21655;46.056;13.616;2023-07-29T13:20:37;9.07;;;3.30;;
35550;SDS011;21655;46.056;13.616;2023-07-29T13:23:03;7.28;;;2.55;;
35550;SDS011;21655;46.056;13.616;2023-07-29T13:25:28;5.70;;;2.60;;
35550;SDS011;21655;46.056;13.616;2023-07-29T13:27:54;4.60;;;2.50;;
35550;SDS011;21655;46.056;13.616;2023-07-29T13:30:19;5.45;;;2.75;;
35550;SDS011;21655;46.056;13.616;2023-07-29T13:32:45;6.70;;;2.78;;
35550;SDS011;21655;46.056;13.616;2023-07-29T13:35:10;7.60;;;2.90;;
35550;SDS011;21655;46.056;13.616;2023-07-29T13:37:35;5.32;;;2.60;;
35550;SDS011;21655;46.056;13.616;2023-07-29T13:40:01;5.05;;;2.67;;
35550;SDS011;21655;46.056;13.616;2023-07-29T13:42:26;7.60;;;3.17;;
35550;SDS011;21655;46.056;13.616;2023-07-29T13:44:52;6.10;;;3.17;;
35550;SDS011;21655;46.056;13.616;2023-07-29T13:47:17;8.30;;;3.03;;
35550;SDS011;21655;46.056;13.616;2023-07-29T13:49:43;7.55;;;2.88;;
35550;SDS011;21655;46.056;13.616;2023-07-29T13:52:08;13.32;;;3.33;;
35550;SDS011;21655;46.056;13.616;2023-07-29T13:54:34;6.43;;;2.80;;
35550;SDS011;21655;46.056;13.616;2023-07-29T13:56:59;9.35;;;3.28;;
35550;SDS011;21655;46.056;13.616;2023-07-29T13:59:25;7.53;;;3.42;;
35550;SDS011;21655;46.056;13.616;2023-07-29T14:01:50;6.28;;;3.05;;
35550;SDS011;21655;46.056;13.616;2023-07-29T14:04:15;6.57;;;2.95;;
35550;SDS011;21655;46.056;13.616;2023-07-29T14:06:41;7.90;;;3.25;;
35550;SDS011;21655;46.056;13.616;2023-07-29T14:09:06;6.97;;;2.80;;
35550;SDS011;21655;46.056;13.616;2023-07-29T14:11:32;6.03;;;2.88;;
35550;SDS011;21655;46.056;13.616;2023-07-29T14:13:57;7.90;;;3.25;;
35550;SDS011;21655;46.056;13.616;2023-07-29T14:16:22;5.85;;;2.88;;
35550;SDS011;21655;46.056;13.616;2023-07-29T14:18:48;6.43;;;2.80;;
35550;SDS011;21655;46.056;13.616;2023-07-29T14:21:13;8.20;;;2.92;;
35550;SDS011;21655;46.056;13.616;2023-07-29T14:23:39;11.32;;;3.15;;
35550;SDS011;21655;46.056;13.616;2023-07-29T14:26:04;4.28;;;2.55;;
35550;SDS011;21655;46.056;13.616;2023-07-29T14:28:30;8.35;;;2.88;;
35550;SDS011;21655;46.056;13.616;2023-07-29T14:30:56;10.60;;;2.92;;
35550;SDS011;21655;46.056;13.616;2023-07-29T14:33:21;5.70;;;2.45;;
35550;SDS011;21655;46.056;13.616;2023-07-29T14:35:47;8.80;;;2.60;;
35550;SDS011;21655;46.056;13.616;2023-07-29T14:38:12;10.15;;;2.90;;
35550;SDS011;21655;46.056;13.616;2023-07-29T14:40:37;5.85;;;2.83;;
35550;SDS011;21655;46.056;13.616;2023-07-29T14:43:03;6.50;;;2.70;;
35550;SDS011;21655;46.056;13.616;2023-07-29T14:45:28;6.53;;;2.92;;
35550;SDS011;21655;46.056;13.616;2023-07-29T14:47:54;3.72;;;2.28;;
35550;SDS011;21655;46.056;13.616;2023-07-29T14:50:19;7.60;;;2.92;;
35550;SDS011;21655;46.056;13.616;2023-07-29T14:52:44;13.60;;;2.60;;
35550;SDS011;21655;46.056;13.616;2023-07-29T14:55:10;6.25;;;2.50;;
35550;SDS011;21655;46.056;13.616;2023-07-29T14:57:35;7.13;;;2.53;;